sensor_id;sensor_type;location;lat;lon;timestamp;pressure;altitude;pressure_sealevel;temperature;humidity
8101;BME280;4093;53.470;9.832;2022-12-07T00:01:04;101081.19;;;6.04;97.74
8101;BME280;4093;53.470;9.832;2022-12-07T00:03:32;101079.53;;;6.12;98.30
8101;BME280;4093;53.470;9.832;2022-12-07T00:06:01;101066.63;;;6.01;97.98
8101;BME280;4093;53.470;9.832;2022-12-07T00:08:29;101070.09;;;6.10;97.63
8101;BME280;4093;53.470;9.832;2022-12-07T00:11:01;101075.25;;;6.10;96.72
8101;BME280;4093;53.470;9.832;2022-12-07T00:13:30;101081.25;;;6.13;97.38
8101;BME280;4093;53.470;9.832;2022-12-07T00:16:00;101067.44;;;5.93;97.55
8101;BME280;4093;53.470;9.832;2022-12-07T00:18:29;101062.44;;;6.13;97.20
8101;BME280;4093;53.470;9.832;2022-12-07T00:21:00;101063.09;;;5.87;98.55
8101;BME280;4093;53.470;9.832;2022-12-07T00:23:29;101067.28;;;5.74;99.53
8101;BME280;4093;53.470;9.832;2022-12-07T00:26:03;101066.72;;;6.17;97.66
8101;BME280;4093;53.470;9.832;2022-12-07T00:28:33;101062.50;;;6.28;96.64
8101;BME280;4093;53.470;9.832;2022-12-07T00:31:03;101045.19;;;5.95;97.91
8101;BME280;4093;53.470;9.832;2022-12-07T00:33:32;101049.41;;;5.87;97.10
8101;BME280;4093;53.470;9.832;2022-12-07T00:36:00;101053.69;;;5.88;97.25
8101;BME280;4093;53.470;9.832;2022-12-07T00:38:29;101046.91;;;5.93;96.65
8101;BME280;4093;53.470;9.832;2022-12-07T00:41:01;101058.97;;;6.11;96.11
8101;BME280;4093;53.470;9.832;2022-12-07T00:43:30;101045.09;;;5.86;97.41
8101;BME280;4093;53.470;9.832;2022-12-07T00:45:59;101049.50;;;5.97;97.21
8101;BME280;4093;53.470;9.832;2022-12-07T00:48:27;101049.41;;;5.88;98.52
8101;BME280;4093;53.470;9.832;2022-12-07T00:50:55;101042.78;;;6.19;97.17
8101;BME280;4093;53.470;9.832;2022-12-07T00:53:23;101036.81;;;6.26;95.77
8101;BME280;4093;53.470;9.832;2022-12-07T00:55:52;100993.09;;;6.05;95.93
8101;BME280;4093;53.470;9.832;2022-12-07T00:58:19;101029.06;;;6.14;95.90
8101;BME280;4093;53.470;9.832;2022-12-07T01:00:47;101036.75;;;6.08;96.59
8101;BME280;4093;53.470;9.832;2022-12-07T01:03:17;101036.75;;;6.08;97.51
8101;BME280;4093;53.470;9.832;2022-12-07T01:05:52;101041.00;;;6.11;98.38
8101;BME280;4093;53.470;9.832;2022-12-07T01:08:22;101037.75;;;6.42;96.93
8101;BME280;4093;53.470;9.832;2022-12-07T01:10:57;100987.16;;;6.15;96.54
8101;BME280;4093;53.470;9.832;2022-12-07T01:13:25;101016.22;;;6.11;97.86
8101;BME280;4093;53.470;9.832;2022-12-07T01:15:57;101023.09;;;6.15;98.51
8101;BME280;4093;53.470;9.832;2022-12-07T01:18:28;101017.81;;;5.94;99.08
8101;BME280;4093;53.470;9.832;2022-12-07T01:20:58;101032.56;;;6.29;97.76
8101;BME280;4093;53.470;9.832;2022-12-07T01:23:25;101024.00;;;6.33;97.92
8101;BME280;4093;53.470;9.832;2022-12-07T01:25:55;101028.31;;;6.34;97.58
8101;BME280;4093;53.470;9.832;2022-12-07T01:28:23;101010.94;;;5.90;99.55
8101;BME280;4093;53.470;9.832;2022-12-07T01:31:01;101023.13;;;6.29;98.16
8101;BME280;4093;53.470;9.832;2022-12-07T01:33:32;101011.06;;;6.08;97.80
8101;BME280;4093;53.470;9.832;2022-12-07T01:36:02;101005.84;;;5.93;99.06
8101;BME280;4093;53.470;9.832;2022-12-07T01:38:31;100977.53;;;5.85;98.69
8101;BME280;4093;53.470;9.832;2022-12-07T01:41:00;101009.44;;;6.25;97.42
8101;BME280;4093;53.470;9.832;2022-12-07T01:43:30;101014.50;;;6.10;97.55
8101;BME280;4093;53.470;9.832;2022-12-07T01:45:59;100996.47;;;5.96;98.23
8101;BME280;4093;53.470;9.832;2022-12-07T01:48:29;101017.88;;;6.03;97.91
8101;BME280;4093;53.470;9.832;2022-12-07T01:51:03;101002.56;;;6.18;97.31
8101;BME280;4093;53.470;9.832;2022-12-07T01:53:32;101007.69;;;6.15;97.62
8101;BME280;4093;53.470;9.832;2022-12-07T01:56:11;101009.44;;;6.21;96.80
8101;BME280;4093;53.470;9.832;2022-12-07T01:58:42;101009.41;;;6.22;96.79
8101;BME280;4093;53.470;9.832;2022-12-07T02:01:10;101002.44;;;5.97;96.66
8101;BME280;4093;53.470;9.832;2022-12-07T02:03:40;101003.06;;;5.67;97.67
8101;BME280;4093;53.470;9.832;2022-12-07T02:06:12;101019.63;;;6.06;96.61
8101;BME280;4093;53.470;9.832;2022-12-07T02:08:42;101012.66;;;5.89;96.78
8101;BME280;4093;53.470;9.832;2022-12-07T02:11:10;101017.91;;;6.09;96.45
8101;BME280;4093;53.470;9.832;2022-12-07T02:13:40;101020.38;;;5.92;97.04
8101;BME280;4093;53.470;9.832;2022-12-07T02:16:15;101011.84;;;5.95;96.09
8101;BME280;4093;53.470;9.832;2022-12-07T02:18:57;101016.13;;;5.93;96.02
8101;BME280;4093;53.470;9.832;2022-12-07T02:21:35;101010.78;;;5.68;96.84
8101;BME280;4093;53.470;9.832;2022-12-07T02:24:31;100997.06;;;5.63;97.07
8101;BME280;4093;53.470;9.832;2022-12-07T02:30:00;101001.53;;;5.90;95.62
8101;BME280;4093;53.470;9.832;2022-12-07T02:32:38;101011.72;;;5.79;96.54
8101;BME280;4093;53.470;9.832;2022-12-07T02:35:11;101001.50;;;5.89;95.72
8101;BME280;4093;53.470;9.832;2022-12-07T02:37:48;101001.47;;;5.86;95.57
8101;BME280;4093;53.470;9.832;2022-12-07T02:40:23;101005.84;;;5.93;95.36
8101;BME280;4093;53.470;9.832;2022-12-07T02:42:57;101005.84;;;5.93;95.86
8101;BME280;4093;53.470;9.832;2022-12-07T02:45:29;101007.47;;;5.80;94.96
8101;BME280;4093;53.470;9.832;2022-12-07T02:47:59;101007.53;;;5.92;94.74
8101;BME280;4093;53.470;9.832;2022-12-07T02:50:27;101010.13;;;5.95;94.57
8101;BME280;4093;53.470;9.832;2022-12-07T02:52:55;100998.84;;;5.72;95.36
8101;BME280;4093;53.470;9.832;2022-12-07T02:55:28;101003.97;;;5.73;94.41
8101;BME280;4093;53.470;9.832;2022-12-07T02:58:15;100995.47;;;5.77;94.61
8101;BME280;4093;53.470;9.832;2022-12-07T03:00:54;101001.44;;;5.78;94.95
8101;BME280;4093;53.470;9.832;2022-12-07T03:03:27;100995.47;;;5.77;94.76
8101;BME280;4093;53.470;9.832;2022-12-07T03:06:05;100991.06;;;5.60;95.04
8101;BME280;4093;53.470;9.832;2022-12-07T03:08:45;101007.38;;;5.69;94.85
8101;BME280;4093;53.470;9.832;2022-12-07T03:11:21;100998.75;;;5.58;95.21
8101;BME280;4093;53.470;9.832;2022-12-07T03:13:58;100981.63;;;5.55;94.99
8101;BME280;4093;53.470;9.832;2022-12-07T03:16:33;100993.72;;;5.70;94.72
8101;BME280;4093;53.470;9.832;2022-12-07T03:19:05;100939.59;;;5.32;94.91
8101;BME280;4093;53.470;9.832;2022-12-07T03:21:37;100991.78;;;5.42;95.97
8101;BME280;4093;53.470;9.832;2022-12-07T03:24:10;100976.63;;;5.75;94.96
8101;BME280;4093;53.470;9.832;2022-12-07T03:26:46;100986.88;;;5.75;94.36
8101;BME280;4093;53.470;9.832;2022-12-07T03:29:19;100991.22;;;5.81;93.30
8101;BME280;4093;53.470;9.832;2022-12-07T03:31:54;100992.94;;;5.84;93.76
8101;BME280;4093;53.470;9.832;2022-12-07T03:34:29;100995.28;;;5.50;94.47
8101;BME280;4093;53.470;9.832;2022-12-07T03:37:03;100996.16;;;5.52;94.80
8101;BME280;4093;53.470;9.832;2022-12-07T03:39:36;101003.13;;;5.71;93.96
8101;BME280;4093;53.470;9.832;2022-12-07T03:42:07;100991.84;;;5.49;93.72
8101;BME280;4093;53.470;9.832;2022-12-07T03:44:36;100936.72;;;4.94;94.12
8101;BME280;4093;53.470;9.832;2022-12-07T03:47:12;101004.59;;;5.42;94.50
8101;BME280;4093;53.470;9.832;2022-12-07T03:49:45;101003.94;;;5.64;92.98
8101;BME280;4093;53.470;9.832;2022-12-07T03:52:20;100997.88;;;5.57;92.26
8101;BME280;4093;53.470;9.832;2022-12-07T03:54:55;100994.53;;;5.65;91.59
8101;BME280;4093;53.470;9.832;2022-12-07T03:57:25;100994.41;;;5.49;92.91
8101;BME280;4093;53.470;9.832;2022-12-07T03:59:55;100996.94;;;5.45;92.81
8101;BME280;4093;53.470;9.832;2022-12-07T04:02:27;100979.72;;;5.27;92.92
8101;BME280;4093;53.470;9.832;2022-12-07T04:04:56;100993.59;;;5.52;92.17
8101;BME280;4093;53.470;9.832;2022-12-07T04:07:24;100998.78;;;5.61;91.48
8101;BME280;4093;53.470;9.832;2022-12-07T04:09:52;101003.81;;;5.50;91.44
8101;BME280;4093;53.470;9.832;2022-12-07T04:12:21;101003.81;;;5.49;91.11
8101;BME280;4093;53.470;9.832;2022-12-07T04:14:49;101003.88;;;5.58;91.27
8101;BME280;4093;53.470;9.832;2022-12-07T04:17:16;101008.16;;;5.59;91.26
8101;BME280;4093;53.470;9.832;2022-12-07T04:19:46;101004.69;;;5.52;90.67
8101;BME280;4093;53.470;9.832;2022-12-07T04:22:13;101004.69;;;5.52;90.65
8101;BME280;4093;53.470;9.832;2022-12-07T04:24:41;101008.09;;;5.51;90.57
8101;BME280;4093;53.470;9.832;2022-12-07T04:27:09;101009.78;;;5.51;90.74
8101;BME280;4093;53.470;9.832;2022-12-07T04:29:37;101012.38;;;5.54;90.78
8101;BME280;4093;53.470;9.832;2022-12-07T04:32:05;100996.91;;;5.42;89.76
8101;BME280;4093;53.470;9.832;2022-12-07T04:34:33;101009.78;;;5.51;90.13
8101;BME280;4093;53.470;9.832;2022-12-07T04:37:02;101008.94;;;5.47;90.35
8101;BME280;4093;53.470;9.832;2022-12-07T04:39:31;101014.94;;;5.54;90.57
8101;BME280;4093;53.470;9.832;2022-12-07T04:42:00;101006.44;;;5.60;89.89
8101;BME280;4093;53.470;9.832;2022-12-07T04:44:28;101001.28;;;5.53;89.80
8101;BME280;4093;53.470;9.832;2022-12-07T04:46:56;100969.53;;;5.38;89.87
8101;BME280;4093;53.470;9.832;2022-12-07T04:49:26;101000.38;;;5.47;90.35
8101;BME280;4093;53.470;9.832;2022-12-07T04:51:54;100995.34;;;5.59;90.15
8101;BME280;4093;53.470;9.832;2022-12-07T04:54:24;100997.88;;;5.56;90.17
8101;BME280;4093;53.470;9.832;2022-12-07T04:56:51;100991.81;;;5.45;91.00
8101;BME280;4093;53.470;9.832;2022-12-07T04:59:19;100989.31;;;5.52;89.89
8101;BME280;4093;53.470;9.832;2022-12-07T05:01:47;100997.03;;;5.60;89.20
8101;BME280;4093;53.470;9.832;2022-12-07T05:04:15;100990.19;;;5.57;88.98
8101;BME280;4093;53.470;9.832;2022-12-07T05:06:44;100997.91;;;5.61;89.54
8101;BME280;4093;53.470;9.832;2022-12-07T05:09:12;100990.28;;;5.68;88.75
8101;BME280;4093;53.470;9.832;2022-12-07T05:11:41;100985.88;;;5.50;88.28
8101;BME280;4093;53.470;9.832;2022-12-07T05:14:12;100983.25;;;5.43;88.00
8101;BME280;4093;53.470;9.832;2022-12-07T05:16:41;100986.78;;;5.55;88.14
8101;BME280;4093;53.470;9.832;2022-12-07T05:19:09;100985.06;;;5.57;87.60
8101;BME280;4093;53.470;9.832;2022-12-07T05:21:38;100953.28;;;5.34;87.60
8101;BME280;4093;53.470;9.832;2022-12-07T05:24:06;100982.41;;;5.48;88.25
8101;BME280;4093;53.470;9.832;2022-12-07T05:26:35;100979.06;;;5.57;88.18
8101;BME280;4093;53.470;9.832;2022-12-07T05:29:05;100981.63;;;5.57;87.95
8101;BME280;4093;53.470;9.832;2022-12-07T05:31:32;100982.53;;;5.62;88.16
8101;BME280;4093;53.470;9.832;2022-12-07T05:34:01;100976.50;;;5.57;87.55
8101;BME280;4093;53.470;9.832;2022-12-07T05:36:29;100979.06;;;5.57;87.05
8101;BME280;4093;53.470;9.832;2022-12-07T05:38:58;100949.72;;;5.15;88.05
8101;BME280;4093;53.470;9.832;2022-12-07T05:41:26;100981.66;;;5.60;87.26
8101;BME280;4093;53.470;9.832;2022-12-07T05:44:24;100977.34;;;5.53;86.78
8101;BME280;4093;53.470;9.832;2022-12-07T05:46:52;100973.84;;;5.42;86.98
8101;BME280;4093;53.470;9.832;2022-12-07T05:49:20;100974.53;;;5.22;88.06
8101;BME280;4093;53.470;9.832;2022-12-07T05:51:48;100976.28;;;5.23;88.42
8101;BME280;4093;53.470;9.832;2022-12-07T05:54:15;100981.31;;;5.16;89.32
8101;BME280;4093;53.470;9.832;2022-12-07T05:56:43;100920.34;;;4.76;89.31
8101;BME280;4093;53.470;9.832;2022-12-07T05:59:11;100973.69;;;5.20;89.15
8101;BME280;4093;53.470;9.832;2022-12-07T06:01:53;100969.38;;;5.16;88.71
8101;BME280;4093;53.470;9.832;2022-12-07T06:04:23;100976.94;;;5.02;89.40
8101;BME280;4093;53.470;9.832;2022-12-07T06:06:52;100978.72;;;5.13;89.14
8101;BME280;4093;53.470;9.832;2022-12-07T06:09:21;100980.53;;;5.21;89.54
8101;BME280;4093;53.470;9.832;2022-12-07T06:11:49;100980.44;;;5.14;89.16
8101;BME280;4093;53.470;9.832;2022-12-07T06:14:34;100981.88;;;4.81;90.50
8101;BME280;4093;53.470;9.832;2022-12-07T06:17:04;100990.59;;;5.04;89.73
8101;BME280;4093;53.470;9.832;2022-12-07T06:19:33;100933.09;;;4.70;89.31
8101;BME280;4093;53.470;9.832;2022-12-07T06:22:02;100984.53;;;4.93;90.88
8101;BME280;4093;53.470;9.832;2022-12-07T06:24:31;100990.69;;;5.12;90.52
8101;BME280;4093;53.470;9.832;2022-12-07T06:26:59;100949.41;;;4.80;89.54
8101;BME280;4093;53.470;9.832;2022-12-07T06:29:27;100983.69;;;4.94;90.92
8101;BME280;4093;53.470;9.832;2022-12-07T06:31:55;100988.22;;;5.21;90.96
8101;BME280;4093;53.470;9.832;2022-12-07T06:34:25;100987.34;;;5.18;90.68
8101;BME280;4093;53.470;9.832;2022-12-07T06:36:53;100986.56;;;5.29;89.21
8101;BME280;4093;53.470;9.832;2022-12-07T06:39:24;100979.41;;;4.93;90.22
8101;BME280;4093;53.470;9.832;2022-12-07T06:41:52;100981.25;;;5.06;90.26
8101;BME280;4093;53.470;9.832;2022-12-07T06:44:21;100983.78;;;5.02;90.77
8101;BME280;4093;53.470;9.832;2022-12-07T06:46:49;100986.50;;;5.20;90.14
8101;BME280;4093;53.470;9.832;2022-12-07T06:49:21;100976.09;;;5.02;90.56
8101;BME280;4093;53.470;9.832;2022-12-07T06:51:50;100981.31;;;5.11;90.24
8101;BME280;4093;53.470;9.832;2022-12-07T06:54:18;100935.81;;;4.87;90.76
8101;BME280;4093;53.470;9.832;2022-12-07T06:56:46;100974.28;;;4.95;90.99
8101;BME280;4093;53.470;9.832;2022-12-07T06:59:14;100968.44;;;5.06;90.92
8101;BME280;4093;53.470;9.832;2022-12-07T07:01:42;100986.53;;;5.23;91.07
8101;BME280;4093;53.470;9.832;2022-12-07T07:04:09;100976.09;;;5.02;90.96
8101;BME280;4093;53.470;9.832;2022-12-07T07:06:37;100981.34;;;5.17;91.08
8101;BME280;4093;53.470;9.832;2022-12-07T07:09:06;100978.00;;;5.27;90.56
8101;BME280;4093;53.470;9.832;2022-12-07T07:11:36;100980.34;;;5.01;91.29
8101;BME280;4093;53.470;9.832;2022-12-07T07:14:03;100989.09;;;5.25;90.18
8101;BME280;4093;53.470;9.832;2022-12-07T07:16:31;100987.38;;;5.24;89.85
8101;BME280;4093;53.470;9.832;2022-12-07T07:19:00;100985.66;;;5.23;90.38
8101;BME280;4093;53.470;9.832;2022-12-07T07:21:28;100989.81;;;5.10;90.75
8101;BME280;4093;53.470;9.832;2022-12-07T07:23:56;100988.13;;;5.12;90.90
8101;BME280;4093;53.470;9.832;2022-12-07T07:26:25;100990.81;;;5.26;90.82
8101;BME280;4093;53.470;9.832;2022-12-07T07:28:53;100990.66;;;5.10;91.67
8101;BME280;4093;53.470;9.832;2022-12-07T07:31:21;100993.75;;;4.76;93.18
8101;BME280;4093;53.470;9.832;2022-12-07T07:33:48;100999.09;;;4.96;93.21
8101;BME280;4093;53.470;9.832;2022-12-07T07:36:17;100995.78;;;5.09;91.20
8101;BME280;4093;53.470;9.832;2022-12-07T07:38:44;100996.59;;;5.02;91.96
8101;BME280;4093;53.470;9.832;2022-12-07T07:41:12;100994.00;;;4.99;91.84
8101;BME280;4093;53.470;9.832;2022-12-07T07:43:42;101000.78;;;4.92;92.33
8101;BME280;4093;53.470;9.832;2022-12-07T07:46:09;100993.22;;;5.09;92.03
8101;BME280;4093;53.470;9.832;2022-12-07T07:48:37;101005.22;;;5.12;92.02
8101;BME280;4093;53.470;9.832;2022-12-07T07:51:06;101005.97;;;5.04;92.58
8101;BME280;4093;53.470;9.832;2022-12-07T07:53:34;101012.81;;;5.04;92.76
8101;BME280;4093;53.470;9.832;2022-12-07T07:56:02;101004.38;;;5.13;92.43
8101;BME280;4093;53.470;9.832;2022-12-07T07:58:31;101002.72;;;5.18;92.22
8101;BME280;4093;53.470;9.832;2022-12-07T08:01:05;100977.84;;;5.10;92.27
8101;BME280;4093;53.470;9.832;2022-12-07T08:03:33;101015.72;;;5.39;91.91
8101;BME280;4093;53.470;9.832;2022-12-07T08:06:02;101012.31;;;5.45;91.81
8101;BME280;4093;53.470;9.832;2022-12-07T08:08:29;100902.38;;;4.70;91.21
8101;BME280;4093;53.470;9.832;2022-12-07T08:10:57;101002.88;;;5.36;92.29
8101;BME280;4093;53.470;9.832;2022-12-07T08:13:27;100942.97;;;5.23;91.05
8101;BME280;4093;53.470;9.832;2022-12-07T08:15:57;100997.63;;;5.22;92.07
8101;BME280;4093;53.470;9.832;2022-12-07T08:18:26;101002.03;;;5.42;91.88
8101;BME280;4093;53.470;9.832;2022-12-07T08:20:58;100998.72;;;5.56;91.22
8101;BME280;4093;53.470;9.832;2022-12-07T08:23:27;101003.16;;;5.79;90.35
8101;BME280;4093;53.470;9.832;2022-12-07T08:26:07;100985.94;;;5.58;91.39
8101;BME280;4093;53.470;9.832;2022-12-07T08:28:35;100990.25;;;5.65;91.33
8101;BME280;4093;53.470;9.832;2022-12-07T08:31:04;101010.03;;;5.83;91.32
8101;BME280;4093;53.470;9.832;2022-12-07T08:33:34;101000.63;;;5.84;90.74
8101;BME280;4093;53.470;9.832;2022-12-07T08:36:03;100991.97;;;5.65;91.38
8101;BME280;4093;53.470;9.832;2022-12-07T08:38:31;101000.53;;;5.68;91.66
8101;BME280;4093;53.470;9.832;2022-12-07T08:40:59;101003.13;;;5.76;91.59
8101;BME280;4093;53.470;9.832;2022-12-07T08:43:27;100997.13;;;5.72;92.00
8101;BME280;4093;53.470;9.832;2022-12-07T08:46:03;100995.28;;;5.53;93.25
8101;BME280;4093;53.470;9.832;2022-12-07T08:48:37;101005.78;;;5.87;91.84
8101;BME280;4093;53.470;9.832;2022-12-07T08:51:06;101004.94;;;5.86;91.74
8101;BME280;4093;53.470;9.832;2022-12-07T08:53:35;101001.56;;;5.93;91.46
8101;BME280;4093;53.470;9.832;2022-12-07T08:56:05;101006.69;;;5.95;91.68
8101;BME280;4093;53.470;9.832;2022-12-07T08:58:34;101014.41;;;5.95;91.55
8101;BME280;4093;53.470;9.832;2022-12-07T09:01:04;101020.53;;;6.18;91.04
8101;BME280;4093;53.470;9.832;2022-12-07T09:03:32;101023.97;;;6.25;90.84
8101;BME280;4093;53.470;9.832;2022-12-07T09:06:01;101016.31;;;6.33;90.42
8101;BME280;4093;53.470;9.832;2022-12-07T09:08:32;101012.91;;;6.34;90.36
8101;BME280;4093;53.470;9.832;2022-12-07T09:11:02;101016.25;;;6.14;91.24
8101;BME280;4093;53.470;9.832;2022-12-07T09:13:30;101013.69;;;6.23;91.24
8101;BME280;4093;53.470;9.832;2022-12-07T09:15:58;101023.13;;;6.24;90.46
8101;BME280;4093;53.470;9.832;2022-12-07T09:18:26;101007.59;;;5.97;91.53
8101;BME280;4093;53.470;9.832;2022-12-07T09:20:54;101007.56;;;5.94;92.71
8101;BME280;4093;53.470;9.832;2022-12-07T09:23:24;101015.41;;;6.23;91.70
8101;BME280;4093;53.470;9.832;2022-12-07T09:25:52;101013.81;;;6.49;90.25
8101;BME280;4093;53.470;9.832;2022-12-07T09:28:20;101012.00;;;6.25;90.78
8101;BME280;4093;53.470;9.832;2022-12-07T09:30:48;101023.94;;;6.14;91.95
8101;BME280;4093;53.470;9.832;2022-12-07T09:33:36;101006.06;;;6.42;89.84
8101;BME280;4093;53.470;9.832;2022-12-07T09:36:04;100921.06;;;5.82;89.79
8101;BME280;4093;53.470;9.832;2022-12-07T09:38:33;101007.88;;;6.61;88.65
8101;BME280;4093;53.470;9.832;2022-12-07T09:41:04;101010.47;;;6.83;87.19
8101;BME280;4093;53.470;9.832;2022-12-07T09:43:35;101004.47;;;6.75;87.55
8101;BME280;4093;53.470;9.832;2022-12-07T09:46:03;101001.06;;;6.82;86.62
8101;BME280;4093;53.470;9.832;2022-12-07T09:48:34;100996.75;;;6.79;85.09
8101;BME280;4093;53.470;9.832;2022-12-07T09:51:13;100998.38;;;6.40;85.86
8101;BME280;4093;53.470;9.832;2022-12-07T09:53:50;101006.13;;;6.53;86.33
8101;BME280;4093;53.470;9.832;2022-12-07T09:56:19;100999.28;;;6.56;85.60
8101;BME280;4093;53.470;9.832;2022-12-07T09:58:48;100994.19;;;6.71;84.31
8101;BME280;4093;53.470;9.832;2022-12-07T10:01:18;100984.66;;;6.34;85.23
8101;BME280;4093;53.470;9.832;2022-12-07T10:03:50;100990.75;;;6.62;85.72
8101;BME280;4093;53.470;9.832;2022-12-07T10:06:19;100991.69;;;7.08;83.80
8101;BME280;4093;53.470;9.832;2022-12-07T10:08:47;100985.69;;;7.03;84.27
8101;BME280;4093;53.470;9.832;2022-12-07T10:11:16;100983.84;;;6.53;85.48
8101;BME280;4093;53.470;9.832;2022-12-07T10:13:46;100995.94;;;6.94;84.71
8101;BME280;4093;53.470;9.832;2022-12-07T10:16:35;100995.06;;;6.75;84.96
8101;BME280;4093;53.470;9.832;2022-12-07T10:19:19;101006.22;;;6.88;85.93
8101;BME280;4093;53.470;9.832;2022-12-07T10:22:09;100993.38;;;6.94;85.58
8101;BME280;4093;53.470;9.832;2022-12-07T10:24:37;100995.09;;;7.04;85.27
8101;BME280;4093;53.470;9.832;2022-12-07T10:27:18;101001.91;;;6.78;86.42
8101;BME280;4093;53.470;9.832;2022-12-07T10:29:48;100998.50;;;6.94;85.96
8101;BME280;4093;53.470;9.832;2022-12-07T10:32:31;100996.78;;;6.98;85.35
8101;BME280;4093;53.470;9.832;2022-12-07T10:35:23;101002.81;;;7.07;85.33
8101;BME280;4093;53.470;9.832;2022-12-07T10:37:52;100993.38;;;6.94;84.75
8101;BME280;4093;53.470;9.832;2022-12-07T10:40:29;100953.94;;;6.84;84.72
8101;BME280;4093;53.470;9.832;2022-12-07T10:43:18;100983.94;;;6.78;86.35
8101;BME280;4093;53.470;9.832;2022-12-07T10:46:16;100983.97;;;6.99;85.71
8101;BME280;4093;53.470;9.832;2022-12-07T10:48:54;100981.38;;;6.93;85.37
8101;BME280;4093;53.470;9.832;2022-12-07T10:51:31;;;;6.76;
8101;BME280;4093;53.470;9.832;2022-12-07T10:54:10;100981.38;;;7.21;84.49
8101;BME280;4093;53.470;9.832;2022-12-07T10:57:13;100975.38;;;7.35;82.99
8101;BME280;4093;53.470;9.832;2022-12-07T10:59:55;100973.66;;;7.21;84.22
8101;BME280;4093;53.470;9.832;2022-12-07T11:02:44;100971.09;;;7.10;84.51
8101;BME280;4093;53.470;9.832;2022-12-07T11:05:21;100971.09;;;7.19;84.62
8101;BME280;4093;53.470;9.832;2022-12-07T11:08:01;100973.66;;;6.84;86.11
8101;BME280;4093;53.470;9.832;2022-12-07T11:10:38;100974.53;;;7.00;86.22
8101;BME280;4093;53.470;9.832;2022-12-07T11:13:21;100975.41;;;7.09;84.73
8101;BME280;4093;53.470;9.832;2022-12-07T11:16:07;100967.69;;;7.15;85.69
8101;BME280;4093;53.470;9.832;2022-12-07T11:18:48;100962.50;;;7.45;84.73
8101;BME280;4093;53.470;9.832;2022-12-07T11:21:24;100962.53;;;7.12;86.14
8101;BME280;4093;53.470;9.832;2022-12-07T11:23:56;100963.38;;;7.36;83.66
8101;BME280;4093;53.470;9.832;2022-12-07T11:26:40;100954.81;;;7.55;84.43
8101;BME280;4093;53.470;9.832;2022-12-07T11:29:21;100958.19;;;7.63;84.21
8101;BME280;4093;53.470;9.832;2022-12-07T11:32:04;100953.03;;;7.67;84.62
8101;BME280;4093;53.470;9.832;2022-12-07T11:34:43;100949.66;;;7.55;83.98
8101;BME280;4093;53.470;9.832;2022-12-07T11:37:18;100948.81;;;6.92;86.29
8101;BME280;4093;53.470;9.832;2022-12-07T11:39:50;100960.75;;;7.67;85.14
8101;BME280;4093;53.470;9.832;2022-12-07T11:42:21;100953.94;;;7.52;84.88
8101;BME280;4093;53.470;9.832;2022-12-07T11:44:53;100940.22;;;7.30;83.72
8101;BME280;4093;53.470;9.832;2022-12-07T11:47:28;100940.22;;;7.21;85.03
8101;BME280;4093;53.470;9.832;2022-12-07T11:50:05;100947.97;;;7.02;85.29
8101;BME280;4093;53.470;9.832;2022-12-07T11:52:46;100943.66;;;7.32;83.85
8101;BME280;4093;53.470;9.832;2022-12-07T11:55:19;100943.69;;;7.33;85.60
8101;BME280;4093;53.470;9.832;2022-12-07T11:57:54;100931.66;;;7.29;83.19
8101;BME280;4093;53.470;9.832;2022-12-07T12:00:25;100929.09;;;7.46;83.28
8101;BME280;4093;53.470;9.832;2022-12-07T12:02:59;100929.94;;;7.36;83.91
8101;BME280;4093;53.470;9.832;2022-12-07T12:05:29;100921.38;;;7.52;82.92
8101;BME280;4093;53.470;9.832;2022-12-07T12:08:05;100931.59;;;7.66;82.51
8101;BME280;4093;53.470;9.832;2022-12-07T12:11:05;100929.84;;;7.83;82.49
8101;BME280;4093;53.470;9.832;2022-12-07T12:14:02;100932.41;;;7.88;83.49
8101;BME280;4093;53.470;9.832;2022-12-07T12:19:58;100918.72;;;7.71;82.86
8101;BME280;4093;53.470;9.832;2022-12-07T12:22:33;100919.63;;;7.59;82.72
8101;BME280;4093;53.470;9.832;2022-12-07T12:25:05;100923.94;;;7.52;83.20
8101;BME280;4093;53.470;9.832;2022-12-07T12:27:36;100917.91;;;7.56;82.69
8101;BME280;4093;53.470;9.832;2022-12-07T12:30:06;100921.38;;;7.49;84.61
8101;BME280;4093;53.470;9.832;2022-12-07T12:32:38;100923.06;;;7.50;84.64
8101;BME280;4093;53.470;9.832;2022-12-07T12:35:29;100924.75;;;7.60;84.14
8101;BME280;4093;53.470;9.832;2022-12-07T12:41:04;100917.91;;;7.53;85.35
8101;BME280;4093;53.470;9.832;2022-12-07T12:43:51;100906.75;;;7.51;84.95
8101;BME280;4093;53.470;9.832;2022-12-07T12:46:46;100912.72;;;7.67;83.13
8101;BME280;4093;53.470;9.832;2022-12-07T12:49:43;100909.31;;;7.65;83.79
8101;BME280;4093;53.470;9.832;2022-12-07T12:55:26;100913.56;;;7.68;85.02
8101;BME280;4093;53.470;9.832;2022-12-07T12:58:28;100916.06;;;7.97;85.04
8101;BME280;4093;53.470;9.832;2022-12-07T13:01:37;100906.75;;;7.59;83.21
8101;BME280;4093;53.470;9.832;2022-12-07T13:04:17;100912.81;;;7.38;85.41
8101;BME280;4093;53.470;9.832;2022-12-07T13:06:45;100918.69;;;7.84;84.39
8101;BME280;4093;53.470;9.832;2022-12-07T13:09:20;100910.22;;;7.47;85.44
8101;BME280;4093;53.470;9.832;2022-12-07T13:11:57;100923.06;;;7.52;85.49
8101;BME280;4093;53.470;9.832;2022-12-07T13:14:56;100915.25;;;7.90;84.72
8101;BME280;4093;53.470;9.832;2022-12-07T13:18:00;100916.91;;;8.00;85.42
8101;BME280;4093;53.470;9.832;2022-12-07T13:20:49;100852.84;;;6.79;85.07
8101;BME280;4093;53.470;9.832;2022-12-07T13:23:22;100917.91;;;7.56;84.73
8101;BME280;4093;53.470;9.832;2022-12-07T13:25:55;100912.75;;;7.59;84.21
8101;BME280;4093;53.470;9.832;2022-12-07T13:28:33;100906.81;;;7.40;84.46
8101;BME280;4093;53.470;9.832;2022-12-07T13:31:16;100906.78;;;7.30;83.95
8101;BME280;4093;53.470;9.832;2022-12-07T13:33:47;100875.09;;;7.20;83.96
8101;BME280;4093;53.470;9.832;2022-12-07T13:36:20;100915.38;;;7.44;83.60
8101;BME280;4093;53.470;9.832;2022-12-07T13:38:51;100911.94;;;7.37;82.58
8101;BME280;4093;53.470;9.832;2022-12-07T13:41:21;100917.06;;;7.45;82.34
8101;BME280;4093;53.470;9.832;2022-12-07T13:43:54;100912.78;;;7.53;82.28
8101;BME280;4093;53.470;9.832;2022-12-07T13:46:33;100915.38;;;7.35;83.04
8101;BME280;4093;53.470;9.832;2022-12-07T13:49:16;100915.38;;;7.36;82.27
8101;BME280;4093;53.470;9.832;2022-12-07T13:51:44;100917.09;;;7.24;83.52
8101;BME280;4093;53.470;9.832;2022-12-07T13:54:13;100856.28;;;6.72;83.13
8101;BME280;4093;53.470;9.832;2022-12-07T13:56:41;100918.81;;;7.28;82.46
8101;BME280;4093;53.470;9.832;2022-12-07T13:59:14;100918.81;;;7.34;82.20
8101;BME280;4093;53.470;9.832;2022-12-07T14:01:46;100921.34;;;7.51;82.63
8101;BME280;4093;53.470;9.832;2022-12-07T14:04:33;100917.88;;;7.67;81.36